sensor_id;sensor_type;location;lat;lon;timestamp;temperature;humidity
71523;HTU21D;59343;51.102;5.884;2022-08-19T00:56:54;22.03;73.24
71523;HTU21D;59343;51.102;5.884;2022-08-19T00:59:20;22.01;73.38
71523;HTU21D;59343;51.102;5.884;2022-08-19T01:01:47;21.97;73.51
71523;HTU21D;59343;51.102;5.884;2022-08-19T01:04:13;21.97;73.66
71523;HTU21D;59343;51.102;5.884;2022-08-19T01:06:40;21.92;73.67
71523;HTU21D;59343;51.102;5.884;2022-08-19T01:09:09;21.90;73.71
71523;HTU21D;59343;51.102;5.884;2022-08-19T01:11:41;21.90;73.65
71523;HTU21D;59343;51.102;5.884;2022-08-19T01:14:09;21.90;73.61
71523;HTU21D;59343;51.102;5.884;2022-08-19T01:16:38;21.90;73.49
71523;HTU21D;59343;51.102;5.884;2022-08-19T01:19:29;21.89;73.44
71523;HTU21D;59343;51.102;5.884;2022-08-19T01:22:08;21.84;73.67
71523;HTU21D;59343;51.102;5.884;2022-08-19T01:24:37;21.81;73.80
71523;HTU21D;59343;51.102;5.884;2022-08-19T01:27:05;21.79;73.99
71523;HTU21D;59343;51.102;5.884;2022-08-19T01:29:32;21.76;74.09
71523;HTU21D;59343;51.102;5.884;2022-08-19T01:32:01;21.73;74.40
71523;HTU21D;59343;51.102;5.884;2022-08-19T01:34:26;21.70;74.60
71523;HTU21D;59343;51.102;5.884;2022-08-19T01:36:53;21.66;74.60
71523;HTU21D;59343;51.102;5.884;2022-08-19T01:39:23;21.62;74.73
71523;HTU21D;59343;51.102;5.884;2022-08-19T01:41:50;21.62;74.78
71523;HTU21D;59343;51.102;5.884;2022-08-19T01:44:17;21.60;74.62
71523;HTU21D;59343;51.102;5.884;2022-08-19T01:46:47;21.59;74.59
71523;HTU21D;59343;51.102;5.884;2022-08-19T01:49:15;21.55;74.60
71523;HTU21D;59343;51.102;5.884;2022-08-19T01:51:42;21.51;74.73
71523;HTU21D;59343;51.102;5.884;2022-08-19T01:54:12;21.51;74.70
71523;HTU21D;59343;51.102;5.884;2022-08-19T01:56:39;21.49;74.70
71523;HTU21D;59343;51.102;5.884;2022-08-19T01:59:12;21.49;74.68
71523;HTU21D;59343;51.102;5.884;2022-08-19T02:01:40;21.45;74.83
71523;HTU21D;59343;51.102;5.884;2022-08-19T02:04:09;21.42;75.01
71523;HTU21D;59343;51.102;5.884;2022-08-19T02:06:36;21.37;75.16
71523;HTU21D;59343;51.102;5.884;2022-08-19T02:09:03;21.36;75.35
71523;HTU21D;59343;51.102;5.884;2022-08-19T02:11:33;21.34;75.37
71523;HTU21D;59343;51.102;5.884;2022-08-19T02:14:01;21.37;75.32
71523;HTU21D;59343;51.102;5.884;2022-08-19T02:16:28;21.35;75.45
71523;HTU21D;59343;51.102;5.884;2022-08-19T02:18:56;21.32;75.66
71523;HTU21D;59343;51.102;5.884;2022-08-19T02:21:23;21.29;75.80
71523;HTU21D;59343;51.102;5.884;2022-08-19T02:23:50;21.24;76.07
71523;HTU21D;59343;51.102;5.884;2022-08-19T02:26:17;21.27;76.05
71523;HTU21D;59343;51.102;5.884;2022-08-19T02:28:42;21.22;76.19
71523;HTU21D;59343;51.102;5.884;2022-08-19T02:31:11;21.18;76.34
71523;HTU21D;59343;51.102;5.884;2022-08-19T02:33:38;21.15;76.47
71523;HTU21D;59343;51.102;5.884;2022-08-19T02:36:05;21.11;76.63
71523;HTU21D;59343;51.102;5.884;2022-08-19T02:38:32;21.13;76.66
71523;HTU21D;59343;51.102;5.884;2022-08-19T02:41:07;21.10;76.73
71523;HTU21D;59343;51.102;5.884;2022-08-19T02:43:36;21.07;76.76
71523;HTU21D;59343;51.102;5.884;2022-08-19T02:46:21;21.04;76.82
71523;HTU21D;59343;51.102;5.884;2022-08-19T02:48:49;21.02;76.92
71523;HTU21D;59343;51.102;5.884;2022-08-19T02:51:18;21.01;76.97
71523;HTU21D;59343;51.102;5.884;2022-08-19T02:53:44;20.98;77.14
71523;HTU21D;59343;51.102;5.884;2022-08-19T02:56:10;20.96;77.19
71523;HTU21D;59343;51.102;5.884;2022-08-19T02:58:36;20.94;77.30
71523;HTU21D;59343;51.102;5.884;2022-08-19T03:01:02;20.94;77.35
71523;HTU21D;59343;51.102;5.884;2022-08-19T03:03:28;20.91;77.40
71523;HTU21D;59343;51.102;5.884;2022-08-19T03:06:09;20.94;77.37
71523;HTU21D;59343;51.102;5.884;2022-08-19T03:08:37;20.92;77.39
71523;HTU21D;59343;51.102;5.884;2022-08-19T03:11:04;20.94;77.34
71523;HTU21D;59343;51.102;5.884;2022-08-19T03:13:30;20.92;77.37
71523;HTU21D;59343;51.102;5.884;2022-08-19T03:15:56;20.91;77.34
71523;HTU21D;59343;51.102;5.884;2022-08-19T03:18:22;20.89;77.34
71523;HTU21D;59343;51.102;5.884;2022-08-19T03:20:51;20.86;77.38
71523;HTU21D;59343;51.102;5.884;2022-08-19T03:23:22;20.85;77.39
71523;HTU21D;59343;51.102;5.884;2022-08-19T03:25:50;20.85;77.44
71523;HTU21D;59343;51.102;5.884;2022-08-19T03:28:17;20.86;77.42
71523;HTU21D;59343;51.102;5.884;2022-08-19T03:30:58;20.87;77.37
71523;HTU21D;59343;51.102;5.884;2022-08-19T03:33:29;20.88;77.36
71523;HTU21D;59343;51.102;5.884;2022-08-19T03:36:09;20.88;77.34
71523;HTU21D;59343;51.102;5.884;2022-08-19T03:38:38;20.87;77.40
71523;HTU21D;59343;51.102;5.884;2022-08-19T03:41:08;20.84;77.39
71523;HTU21D;59343;51.102;5.884;2022-08-19T03:43:40;20.83;77.31
71523;HTU21D;59343;51.102;5.884;2022-08-19T03:46:10;20.79;77.35
71523;HTU21D;59343;51.102;5.884;2022-08-19T03:48:38;20.75;77.37
71523;HTU21D;59343;51.102;5.884;2022-08-19T03:51:06;20.71;77.41
71523;HTU21D;59343;51.102;5.884;2022-08-19T03:53:34;20.66;77.49
71523;HTU21D;59343;51.102;5.884;2022-08-19T03:56:01;20.64;77.62
71523;HTU21D;59343;51.102;5.884;2022-08-19T03:58:29;20.62;77.62
71523;HTU21D;59343;51.102;5.884;2022-08-19T04:00:56;20.60;77.61
71523;HTU21D;59343;51.102;5.884;2022-08-19T04:03:23;20.60;77.63
71523;HTU21D;59343;51.102;5.884;2022-08-19T04:05:50;20.60;77.54
71523;HTU21D;59343;51.102;5.884;2022-08-19T04:08:16;20.58;77.63
71523;HTU21D;59343;51.102;5.884;2022-08-19T04:10:48;20.58;77.53
71523;HTU21D;59343;51.102;5.884;2022-08-19T04:13:16;20.59;77.56
71523;HTU21D;59343;51.102;5.884;2022-08-19T04:15:44;20.58;77.54
71523;HTU21D;59343;51.102;5.884;2022-08-19T04:18:12;20.56;77.64
71523;HTU21D;59343;51.102;5.884;2022-08-19T04:20:46;20.55;77.72
71523;HTU21D;59343;51.102;5.884;2022-08-19T04:23:14;20.56;77.59
71523;HTU21D;59343;51.102;5.884;2022-08-19T04:25:42;20.57;77.56
71523;HTU21D;59343;51.102;5.884;2022-08-19T04:28:11;20.55;77.53
71523;HTU21D;59343;51.102;5.884;2022-08-19T04:30:46;20.54;77.50
71523;HTU21D;59343;51.102;5.884;2022-08-19T04:33:15;20.55;77.46
71523;HTU21D;59343;51.102;5.884;2022-08-19T04:35:47;20.54;77.62
71523;HTU21D;59343;51.102;5.884;2022-08-19T04:38:15;20.54;77.69
71523;HTU21D;59343;51.102;5.884;2022-08-19T04:40:46;20.56;77.62
71523;HTU21D;59343;51.102;5.884;2022-08-19T04:43:32;20.56;77.53
71523;HTU21D;59343;51.102;5.884;2022-08-19T04:46:05;20.60;77.38
71523;HTU21D;59343;51.102;5.884;2022-08-19T04:48:31;20.62;77.48
71523;HTU21D;59343;51.102;5.884;2022-08-19T04:50:58;20.62;77.32
71523;HTU21D;59343;51.102;5.884;2022-08-19T04:53:33;20.68;77.02
71523;HTU21D;59343;51.102;5.884;2022-08-19T04:56:05;20.68;77.14
71523;HTU21D;59343;51.102;5.884;2022-08-19T04:58:33;20.65;77.21
71523;HTU21D;59343;51.102;5.884;2022-08-19T05:00:59;20.61;77.53
71523;HTU21D;59343;51.102;5.884;2022-08-19T05:03:26;20.58;77.60
71523;HTU21D;59343;51.102;5.884;2022-08-19T05:05:52;20.57;77.56
71523;HTU21D;59343;51.102;5.884;2022-08-19T05:08:20;20.58;77.44
71523;HTU21D;59343;51.102;5.884;2022-08-19T05:10:48;20.59;77.27
71523;HTU21D;59343;51.102;5.884;2022-08-19T05:13:18;20.58;77.11
71523;HTU21D;59343;51.102;5.884;2022-08-19T05:15:55;20.59;76.89
71523;HTU21D;59343;51.102;5.884;2022-08-19T05:18:22;20.59;76.82
71523;HTU21D;59343;51.102;5.884;2022-08-19T05:21:11;20.57;77.04
71523;HTU21D;59343;51.102;5.884;2022-08-19T05:24:01;20.55;77.16
71523;HTU21D;59343;51.102;5.884;2022-08-19T05:26:28;20.57;76.89
71523;HTU21D;59343;51.102;5.884;2022-08-19T05:29:03;20.61;76.83
71523;HTU21D;59343;51.102;5.884;2022-08-19T05:31:57;20.62;76.79
71523;HTU21D;59343;51.102;5.884;2022-08-19T05:34:25;20.64;76.79
71523;HTU21D;59343;51.102;5.884;2022-08-19T05:36:56;20.66;76.63
71523;HTU21D;59343;51.102;5.884;2022-08-19T05:39:25;20.69;76.70
71523;HTU21D;59343;51.102;5.884;2022-08-19T05:41:59;20.72;76.78
71523;HTU21D;59343;51.102;5.884;2022-08-19T05:44:28;20.74;76.63
71523;HTU21D;59343;51.102;5.884;2022-08-19T05:46:59;20.73;76.70
71523;HTU21D;59343;51.102;5.884;2022-08-19T05:49:26;20.73;76.71
71523;HTU21D;59343;51.102;5.884;2022-08-19T05:51:53;20.71;76.73
71523;HTU21D;59343;51.102;5.884;2022-08-19T05:54:22;20.69;76.87
71523;HTU21D;59343;51.102;5.884;2022-08-19T05:56:50;20.68;77.09
71523;HTU21D;59343;51.102;5.884;2022-08-19T05:59:22;20.72;77.08
71523;HTU21D;59343;51.102;5.884;2022-08-19T06:01:51;20.77;76.93
71523;HTU21D;59343;51.102;5.884;2022-08-19T06:04:19;20.80;76.89
71523;HTU21D;59343;51.102;5.884;2022-08-19T06:06:47;20.87;76.76
71523;HTU21D;59343;51.102;5.884;2022-08-19T06:09:18;20.91;76.53
71523;HTU21D;59343;51.102;5.884;2022-08-19T06:11:54;20.93;76.57
71523;HTU21D;59343;51.102;5.884;2022-08-19T06:14:23;20.98;76.44
71523;HTU21D;59343;51.102;5.884;2022-08-19T06:16:50;21.04;76.36
71523;HTU21D;59343;51.102;5.884;2022-08-19T06:19:21;21.16;76.02
71523;HTU21D;59343;51.102;5.884;2022-08-19T06:21:51;21.24;75.88
71523;HTU21D;59343;51.102;5.884;2022-08-19T06:24:21;21.50;75.12
71523;HTU21D;59343;51.102;5.884;2022-08-19T06:26:51;21.88;73.63
71523;HTU21D;59343;51.102;5.884;2022-08-19T06:29:21;22.07;72.06
71523;HTU21D;59343;51.102;5.884;2022-08-19T06:31:51;22.04;72.05
71523;HTU21D;59343;51.102;5.884;2022-08-19T06:34:19;21.98;72.20
71523;HTU21D;59343;51.102;5.884;2022-08-19T06:36:48;21.94;72.27
71523;HTU21D;59343;51.102;5.884;2022-08-19T06:39:38;21.89;72.24
71523;HTU21D;59343;51.102;5.884;2022-08-19T06:42:06;21.79;72.54
71523;HTU21D;59343;51.102;5.884;2022-08-19T06:44:36;21.75;72.67
71523;HTU21D;59343;51.102;5.884;2022-08-19T06:47:04;21.79;72.87
71523;HTU21D;59343;51.102;5.884;2022-08-19T06:49:31;21.85;72.64
71523;HTU21D;59343;51.102;5.884;2022-08-19T06:51:58;21.88;72.49
71523;HTU21D;59343;51.102;5.884;2022-08-19T06:54:25;21.90;72.20
71523;HTU21D;59343;51.102;5.884;2022-08-19T06:56:51;21.89;71.89
71523;HTU21D;59343;51.102;5.884;2022-08-19T06:59:21;21.82;71.86
71523;HTU21D;59343;51.102;5.884;2022-08-19T07:01:52;21.72;71.90
71523;HTU21D;59343;51.102;5.884;2022-08-19T07:04:22;21.63;72.18
71523;HTU21D;59343;51.102;5.884;2022-08-19T07:06:49;21.62;72.31
71523;HTU21D;59343;51.102;5.884;2022-08-19T07:09:18;21.59;72.34
71523;HTU21D;59343;51.102;5.884;2022-08-19T07:11:49;21.59;72.61
71523;HTU21D;59343;51.102;5.884;2022-08-19T07:14:18;21.65;72.58
71523;HTU21D;59343;51.102;5.884;2022-08-19T07:17:10;21.69;72.48
71523;HTU21D;59343;51.102;5.884;2022-08-19T07:19:39;21.77;72.48
71523;HTU21D;59343;51.102;5.884;2022-08-19T07:22:07;21.82;72.29
71523;HTU21D;59343;51.102;5.884;2022-08-19T07:24:34;21.81;72.25
71523;HTU21D;59343;51.102;5.884;2022-08-19T07:27:02;21.81;72.16
71523;HTU21D;59343;51.102;5.884;2022-08-19T07:29:31;21.80;72.19
71523;HTU21D;59343;51.102;5.884;2022-08-19T07:32:00;21.80;72.24
71523;HTU21D;59343;51.102;5.884;2022-08-19T07:34:29;21.78;72.28
71523;HTU21D;59343;51.102;5.884;2022-08-19T07:36:55;21.82;72.37
71523;HTU21D;59343;51.102;5.884;2022-08-19T07:39:31;21.88;72.25
71523;HTU21D;59343;51.102;5.884;2022-08-19T07:42:04;21.89;72.06
71523;HTU21D;59343;51.102;5.884;2022-08-19T07:44:33;21.91;72.00
71523;HTU21D;59343;51.102;5.884;2022-08-19T07:47:00;21.90;71.56
71523;HTU21D;59343;51.102;5.884;2022-08-19T07:49:27;21.85;71.78
71523;HTU21D;59343;51.102;5.884;2022-08-19T07:52:01;21.90;71.84
71523;HTU21D;59343;51.102;5.884;2022-08-19T07:54:39;21.93;71.78
71523;HTU21D;59343;51.102;5.884;2022-08-19T07:57:07;21.99;71.64
71523;HTU21D;59343;51.102;5.884;2022-08-19T07:59:34;22.03;71.27
71523;HTU21D;59343;51.102;5.884;2022-08-19T08:02:24;22.04;71.29
71523;HTU21D;59343;51.102;5.884;2022-08-19T08:04:53;22.13;71.25
71523;HTU21D;59343;51.102;5.884;2022-08-19T08:08:24;22.24;70.77
71523;HTU21D;59343;51.102;5.884;2022-08-19T08:11:04;22.36;70.68
71523;HTU21D;59343;51.102;5.884;2022-08-19T08:13:30;22.46;70.39
71523;HTU21D;59343;51.102;5.884;2022-08-19T08:15:57;22.53;69.97
71523;HTU21D;59343;51.102;5.884;2022-08-19T08:18:24;22.61;69.58
71523;HTU21D;59343;51.102;5.884;2022-08-19T08:20:50;22.69;69.53
71523;HTU21D;59343;51.102;5.884;2022-08-19T08:23:16;22.75;68.97
71523;HTU21D;59343;51.102;5.884;2022-08-19T08:25:55;22.78;68.75
71523;HTU21D;59343;51.102;5.884;2022-08-19T08:28:22;22.87;68.55
71523;HTU21D;59343;51.102;5.884;2022-08-19T08:30:50;22.94;68.40
71523;HTU21D;59343;51.102;5.884;2022-08-19T08:33:21;23.00;67.99
71523;HTU21D;59343;51.102;5.884;2022-08-19T08:36:13;23.05;67.89
71523;HTU21D;59343;51.102;5.884;2022-08-19T08:38:42;23.12;67.59
71523;HTU21D;59343;51.102;5.884;2022-08-19T08:44:26;23.35;67.42
71523;HTU21D;59343;51.102;5.884;2022-08-19T08:47:13;23.47;67.11
71523;HTU21D;59343;51.102;5.884;2022-08-19T08:52:24;23.58;66.43
71523;HTU21D;59343;51.102;5.884;2022-08-19T08:54:54;23.66;65.70
71523;HTU21D;59343;51.102;5.884;2022-08-19T09:00:03;23.74;65.42
71523;HTU21D;59343;51.102;5.884;2022-08-19T09:02:31;23.84;65.04
71523;HTU21D;59343;51.102;5.884;2022-08-19T09:05:33;23.92;64.74
71523;HTU21D;59343;51.102;5.884;2022-08-19T09:08:08;23.87;64.70
71523;HTU21D;59343;51.102;5.884;2022-08-19T09:10:49;23.87;64.92
71523;HTU21D;59343;51.102;5.884;2022-08-19T09:13:20;23.85;64.59
71523;HTU21D;59343;51.102;5.884;2022-08-19T09:16:13;23.89;64.70
71523;HTU21D;59343;51.102;5.884;2022-08-19T09:18:41;23.89;64.37
71523;HTU21D;59343;51.102;5.884;2022-08-19T09:21:07;23.96;64.14
71523;HTU21D;59343;51.102;5.884;2022-08-19T09:23:36;23.98;63.87
71523;HTU21D;59343;51.102;5.884;2022-08-19T09:26:25;24.08;63.96
71523;HTU21D;59343;51.102;5.884;2022-08-19T09:28:52;24.13;63.49
71523;HTU21D;59343;51.102;5.884;2022-08-19T09:31:29;24.17;63.55
71523;HTU21D;59343;51.102;5.884;2022-08-19T09:34:26;24.18;63.49
71523;HTU21D;59343;51.102;5.884;2022-08-19T09:36:53;24.18;63.74
71523;HTU21D;59343;51.102;5.884;2022-08-19T09:39:21;24.23;64.05
71523;HTU21D;59343;51.102;5.884;2022-08-19T09:41:50;24.31;63.49
71523;HTU21D;59343;51.102;5.884;2022-08-19T09:44:16;24.31;63.42
71523;HTU21D;59343;51.102;5.884;2022-08-19T09:46:42;24.36;63.32
71523;HTU21D;59343;51.102;5.884;2022-08-19T09:49:08;24.42;63.15
71523;HTU21D;59343;51.102;5.884;2022-08-19T09:51:33;24.46;62.83
71523;HTU21D;59343;51.102;5.884;2022-08-19T09:54:02;24.51;62.86
71523;HTU21D;59343;51.102;5.884;2022-08-19T09:56:31;24.57;62.76
71523;HTU21D;59343;51.102;5.884;2022-08-19T09:58:59;24.57;61.87
71523;HTU21D;59343;51.102;5.884;2022-08-19T10:01:30;24.48;61.63
71523;HTU21D;59343;51.102;5.884;2022-08-19T10:03:58;24.50;61.61
71523;HTU21D;59343;51.102;5.884;2022-08-19T10:06:27;24.55;61.20
71523;HTU21D;59343;51.102;5.884;2022-08-19T10:08:57;24.62;61.02
71523;HTU21D;59343;51.102;5.884;2022-08-19T10:11:22;24.65;60.64
71523;HTU21D;59343;51.102;5.884;2022-08-19T10:13:48;24.65;60.73
71523;HTU21D;59343;51.102;5.884;2022-08-19T10:16:19;24.71;60.80
71523;HTU21D;59343;51.102;5.884;2022-08-19T10:18:48;24.76;59.86
71523;HTU21D;59343;51.102;5.884;2022-08-19T10:21:18;24.82;59.54
71523;HTU21D;59343;51.102;5.884;2022-08-19T10:23:48;24.78;59.62
71523;HTU21D;59343;51.102;5.884;2022-08-19T10:26:20;24.86;59.57
71523;HTU21D;59343;51.102;5.884;2022-08-19T10:28:46;24.91;59.54
71523;HTU21D;59343;51.102;5.884;2022-08-19T10:31:18;24.98;59.22
71523;HTU21D;59343;51.102;5.884;2022-08-19T10:33:47;24.95;58.95
71523;HTU21D;59343;51.102;5.884;2022-08-19T10:36:17;24.99;58.98
71523;HTU21D;59343;51.102;5.884;2022-08-19T10:38:47;25.03;58.68
71523;HTU21D;59343;51.102;5.884;2022-08-19T10:41:19;25.06;58.59
71523;HTU21D;59343;51.102;5.884;2022-08-19T10:43:50;25.06;58.41
71523;HTU21D;59343;51.102;5.884;2022-08-19T10:46:18;25.08;58.70
71523;HTU21D;59343;51.102;5.884;2022-08-19T10:48:45;25.12;58.69
71523;HTU21D;59343;51.102;5.884;2022-08-19T10:51:11;25.21;58.47
71523;HTU21D;59343;51.102;5.884;2022-08-19T10:54:05;25.24;57.96
71523;HTU21D;59343;51.102;5.884;2022-08-19T10:56:41;25.34;57.61
71523;HTU21D;59343;51.102;5.884;2022-08-19T10:59:22;25.36;57.19
71523;HTU21D;59343;51.102;5.884;2022-08-19T11:01:50;25.39;56.43
71523;HTU21D;59343;51.102;5.884;2022-08-19T11:04:18;25.40;56.14
71523;HTU21D;59343;51.102;5.884;2022-08-19T11:06:53;25.43;55.61
71523;HTU21D;59343;51.102;5.884;2022-08-19T11:09:44;25.43;56.00
71523;HTU21D;59343;51.102;5.884;2022-08-19T11:12:12;25.47;55.54
71523;HTU21D;59343;51.102;5.884;2022-08-19T11:14:38;25.56;55.06
71523;HTU21D;59343;51.102;5.884;2022-08-19T11:17:05;25.61;54.77
71523;HTU21D;59343;51.102;5.884;2022-08-19T11:19:31;25.66;55.07
71523;HTU21D;59343;51.102;5.884;2022-08-19T11:21:57;25.72;54.94
71523;HTU21D;59343;51.102;5.884;2022-08-19T11:24:26;25.75;54.91
71523;HTU21D;59343;51.102;5.884;2022-08-19T11:27:02;25.75;54.69
71523;HTU21D;59343;51.102;5.884;2022-08-19T11:29:30;25.75;53.82
71523;HTU21D;59343;51.102;5.884;2022-08-19T11:31:56;25.78;53.36
71523;HTU21D;59343;51.102;5.884;2022-08-19T11:34:25;25.87;53.07
71523;HTU21D;59343;51.102;5.884;2022-08-19T11:36:53;25.90;52.94
71523;HTU21D;59343;51.102;5.884;2022-08-19T11:39:22;25.94;52.75
71523;HTU21D;59343;51.102;5.884;2022-08-19T11:41:48;26.01;52.42
71523;HTU21D;59343;51.102;5.884;2022-08-19T11:44:14;26.07;52.30
71523;HTU21D;59343;51.102;5.884;2022-08-19T11:46:42;26.17;52.38
71523;HTU21D;59343;51.102;5.884;2022-08-19T11:49:19;26.20;51.54
71523;HTU21D;59343;51.102;5.884;2022-08-19T11:51:54;26.20;51.27
71523;HTU21D;59343;51.102;5.884;2022-08-19T11:54:26;26.22;51.03
71523;HTU21D;59343;51.102;5.884;2022-08-19T11:57:02;26.28;50.56
71523;HTU21D;59343;51.102;5.884;2022-08-19T11:59:28;26.34;50.91
71523;HTU21D;59343;51.102;5.884;2022-08-19T12:01:55;26.38;51.33
71523;HTU21D;59343;51.102;5.884;2022-08-19T12:04:22;26.46;51.43
71523;HTU21D;59343;51.102;5.884;2022-08-19T12:06:48;26.51;51.59
71523;HTU21D;59343;51.102;5.884;2022-08-19T12:09:16;26.55;51.52
71523;HTU21D;59343;51.102;5.884;2022-08-19T12:11:44;26.63;51.27
71523;HTU21D;59343;51.102;5.884;2022-08-19T12:14:12;26.68;50.50
71523;HTU21D;59343;51.102;5.884;2022-08-19T12:16:40;26.70;50.35
71523;HTU21D;59343;51.102;5.884;2022-08-19T12:19:07;26.77;50.71
71523;HTU21D;59343;51.102;5.884;2022-08-19T12:21:35;26.87;49.94
71523;HTU21D;59343;51.102;5.884;2022-08-19T12:24:05;26.92;49.78
71523;HTU21D;59343;51.102;5.884;2022-08-19T12:26:31;26.98;49.95
71523;HTU21D;59343;51.102;5.884;2022-08-19T12:28:58;27.01;50.13
71523;HTU21D;59343;51.102;5.884;2022-08-19T12:31:27;27.02;50.20
71523;HTU21D;59343;51.102;5.884;2022-08-19T12:33:54;27.04;50.14
71523;HTU21D;59343;51.102;5.884;2022-08-19T12:36:20;27.07;50.22
71523;HTU21D;59343;51.102;5.884;2022-08-19T12:38:47;27.10;50.59
71523;HTU21D;59343;51.102;5.884;2022-08-19T12:41:15;27.14;50.53
71523;HTU21D;59343;51.102;5.884;2022-08-19T12:43:45;27.09;50.30
71523;HTU21D;59343;51.102;5.884;2022-08-19T12:46:11;26.99;50.61
71523;HTU21D;59343;51.102;5.884;2022-08-19T12:48:41;26.95;50.99
71523;HTU21D;59343;51.102;5.884;2022-08-19T12:51:14;27.00;51.24
71523;HTU21D;59343;51.102;5.884;2022-08-19T12:53:41;26.97;51.76
71523;HTU21D;59343;51.102;5.884;2022-08-19T12:56:10;27.04;51.99
71523;HTU21D;59343;51.102;5.884;2022-08-19T12:59:05;27.09;52.11
71523;HTU21D;59343;51.102;5.884;2022-08-19T13:01:37;27.13;52.01
71523;HTU21D;59343;51.102;5.884;2022-08-19T13:04:06;27.16;51.70
71523;HTU21D;59343;51.102;5.884;2022-08-19T13:10:20;27.15;50.92
71523;HTU21D;59343;51.102;5.884;2022-08-19T13:13:00;27.11;51.21
71523;HTU21D;59343;51.102;5.884;2022-08-19T13:15:28;27.14;51.79
71523;HTU21D;59343;51.102;5.884;2022-08-19T13:17:57;27.22;51.69
71523;HTU21D;59343;51.102;5.884;2022-08-19T13:20:23;27.21;52.26
71523;HTU21D;59343;51.102;5.884;2022-08-19T13:22:50;27.34;52.30
71523;HTU21D;59343;51.102;5.884;2022-08-19T13:25:17;27.35;52.45
71523;HTU21D;59343;51.102;5.884;2022-08-19T13:27:46;27.35;52.55
71523;HTU21D;59343;51.102;5.884;2022-08-19T13:30:16;27.38;52.82
71523;HTU21D;59343;51.102;5.884;2022-08-19T13:33:10;27.49;53.14
71523;HTU21D;59343;51.102;5.884;2022-08-19T13:36:28;27.64;52.45
71523;HTU21D;59343;51.102;5.884;2022-08-19T13:39:25;27.59;52.24
71523;HTU21D;59343;51.102;5.884;2022-08-19T13:41:51;27.49;52.49
71523;HTU21D;59343;51.102;5.884;2022-08-19T13:44:18;27.41;52.99
71523;HTU21D;59343;51.102;5.884;2022-08-19T13:46:48;27.31;53.62
71523;HTU21D;59343;51.102;5.884;2022-08-19T13:49:16;27.35;54.05
71523;HTU21D;59343;51.102;5.884;2022-08-19T13:51:43;27.52;53.99
71523;HTU21D;59343;51.102;5.884;2022-08-19T13:54:10;27.53;53.78
71523;HTU21D;59343;51.102;5.884;2022-08-19T13:56:45;27.41;54.34
71523;HTU21D;59343;51.102;5.884;2022-08-19T13:59:11;27.29;54.76
71523;HTU21D;59343;51.102;5.884;2022-08-19T14:01:38;27.21;55.18
71523;HTU21D;59343;51.102;5.884;2022-08-19T14:04:05;27.12;55.39
71523;HTU21D;59343;51.102;5.884;2022-08-19T14:06:32;27.09;55.76
71523;HTU21D;59343;51.102;5.884;2022-08-19T14:08:58;27.14;55.95
71523;HTU21D;59343;51.102;5.884;2022-08-19T14:11:24;27.21;55.54
71523;HTU21D;59343;51.102;5.884;2022-08-19T14:13:50;27.21;55.31
71523;HTU21D;59343;51.102;5.884;2022-08-19T14:16:17;27.27;55.31
71523;HTU21D;59343;51.102;5.884;2022-08-19T14:18:43;27.45;54.83
71523;HTU21D;59343;51.102;5.884;2022-08-19T14:21:19;27.59;54.14
71523;HTU21D;59343;51.102;5.884;2022-08-19T14:23:46;27.63;53.72
71523;HTU21D;59343;51.102;5.884;2022-08-19T14:26:15;27.60;53.65
71523;HTU21D;59343;51.102;5.884;2022-08-19T14:28:43;27.52;53.97
71523;HTU21D;59343;51.102;5.884;2022-08-19T14:31:24;27.49;54.26
71523;HTU21D;59343;51.102;5.884;2022-08-19T14:33:51;27.42;54.48
71523;HTU21D;59343;51.102;5.884;2022-08-19T14:36:19;27.40;54.97
71523;HTU21D;59343;51.102;5.884;2022-08-19T14:38:46;27.43;55.20
71523;HTU21D;59343;51.102;5.884;2022-08-19T14:41:19;27.47;55.33
71523;HTU21D;59343;51.102;5.884;2022-08-19T14:43:48;27.49;55.22
71523;HTU21D;59343;51.102;5.884;2022-08-19T14:46:40;27.51;55.41
71523;HTU21D;59343;51.102;5.884;2022-08-19T14:49:06;27.52;55.46
71523;HTU21D;59343;51.102;5.884;2022-08-19T14:51:33;27.61;55.33
71523;HTU21D;59343;51.102;5.884;2022-08-19T14:53:59;27.58;54.87
71523;HTU21D;59343;51.102;5.884;2022-08-19T14:56:27;27.54;55.06
71523;HTU21D;59343;51.102;5.884;2022-08-19T14:58:54;27.53;54.91
71523;HTU21D;59343;51.102;5.884;2022-08-19T15:01:22;27.44;55.16
71523;HTU21D;59343;51.102;5.884;2022-08-19T15:03:49;27.40;55.45
71523;HTU21D;59343;51.102;5.884;2022-08-19T15:06:18;27.44;55.56
71523;HTU21D;59343;51.102;5.884;2022-08-19T15:08:44;27.46;55.56
71523;HTU21D;59343;51.102;5.884;2022-08-19T15:11:13;27.49;55.34
71523;HTU21D;59343;51.102;5.884;2022-08-19T15:13:40;27.58;55.45
71523;HTU21D;59343;51.102;5.884;2022-08-19T15:16:07;27.74;55.13
71523;HTU21D;59343;51.102;5.884;2022-08-19T15:18:34;27.87;54.87
71523;HTU21D;59343;51.102;5.884;2022-08-19T15:21:02;27.93;54.46
71523;HTU21D;59343;51.102;5.884;2022-08-19T15:23:28;27.88;54.39
71523;HTU21D;59343;51.102;5.884;2022-08-19T15:25:55;27.89;54.42
71523;HTU21D;59343;51.102;5.884;2022-08-19T15:28:32;27.87;54.10
71523;HTU21D;59343;51.102;5.884;2022-08-19T15:31:09;27.76;54.23
71523;HTU21D;59343;51.102;5.884;2022-08-19T15:33:37;27.69;54.15
71523;HTU21D;59343;51.102;5.884;2022-08-19T15:36:04;27.58;54.36
71523;HTU21D;59343;51.102;5.884;2022-08-19T15:38:32;27.51;54.57
71523;HTU21D;59343;51.102;5.884;2022-08-19T15:41:00;27.41;54.85
71523;HTU21D;59343;51.102;5.884;2022-08-19T15:43:46;27.35;55.18
71523;HTU21D;59343;51.102;5.884;2022-08-19T15:46:17;27.35;55.26
71523;HTU21D;59343;51.102;5.884;2022-08-19T15:48:44;27.35;55.31
71523;HTU21D;59343;51.102;5.884;2022-08-19T15:51:10;27.36;55.33
71523;HTU21D;59343;51.102;5.884;2022-08-19T15:53:36;27.34;55.33
71523;HTU21D;59343;51.102;5.884;2022-08-19T15:56:03;27.35;55.28
71523;HTU21D;59343;51.102;5.884;2022-08-19T15:58:29;27.29;55.19
71523;HTU21D;59343;51.102;5.884;2022-08-19T16:02:05;27.21;55.41
71523;HTU21D;59343;51.102;5.884;2022-08-19T16:04:51;27.17;55.23
71523;HTU21D;59343;51.102;5.884;2022-08-19T16:07:39;27.15;55.16
71523;HTU21D;59343;51.102;5.884;2022-08-19T16:10:06;27.14;55.16
71523;HTU21D;59343;51.102;5.884;2022-08-19T16:12:33;27.12;55.19
71523;HTU21D;59343;51.102;5.884;2022-08-19T16:14:58;27.09;55.42
71523;HTU21D;59343;51.102;5.884;2022-08-19T16:17:24;27.08;55.56
71523;HTU21D;59343;51.102;5.884;2022-08-19T16:19:50;27.04;55.91
71523;HTU21D;59343;51.102;5.884;2022-08-19T16:22:17;27.02;56.13
71523;HTU21D;59343;51.102;5.884;2022-08-19T16:24:43;26.98;56.40
71523;HTU21D;59343;51.102;5.884;2022-08-19T16:27:09;26.94;56.48
71523;HTU21D;59343;51.102;5.884;2022-08-19T16:29:36;26.87;56.68
71523;HTU21D;59343;51.102;5.884;2022-08-19T16:32:04;26.81;56.62
71523;HTU21D;59343;51.102;5.884;2022-08-19T16:34:31;26.79;56.71
71523;HTU21D;59343;51.102;5.884;2022-08-19T16:36:57;26.76;56.85
71523;HTU21D;59343;51.102;5.884;2022-08-19T16:39:23;26.72;57.04
71523;HTU21D;59343;51.102;5.884;2022-08-19T16:41:50;26.70;56.97
71523;HTU21D;59343;51.102;5.884;2022-08-19T16:44:16;26.69;57.00